Terminal Aerodrome Forecast
Issued by NWS Pueblo, CO

Current Version | Previous Version | Text Only | Print | Product List | Glossary On
Versions: 1 2 3 4 5 6 7 8 9 10 11 12 13 14 15 16 17 18 19 20 21 22
000
FTUS45 KPUB 161142
TAFCOS
TAF
KCOS 161142Z 1612/1712 01007KT P6SM FEW150 SCT250
     FM161600 02012KT P6SM SCT150 BKN200
     FM170200 02008KT P6SM SCT150 BKN200
     FM170600 36009KT P6SM BKN150=

USA.gov is the U.S. government's official web portal to all federal, state and local government web resources and services.